createdAt,value
2023-05-10T00:01:19.086Z,12.31
2023-05-10T00:06:17.665Z,12.54
2023-05-10T00:11:14.353Z,12.72
2023-05-10T00:16:13.480Z,12.67
2023-05-10T00:21:10.768Z,12.77
2023-05-10T00:26:07.399Z,12.79
2023-05-10T00:31:04.215Z,12.75
2023-05-10T00:36:00.968Z,12.31
2023-05-10T00:40:58.169Z,11.78
2023-05-10T00:46:02.523Z,11.41
2023-05-10T00:50:59.272Z,11.53
2023-05-10T00:55:56.015Z,11.32
2023-05-10T01:00:53.359Z,11.58
2023-05-10T01:05:50.307Z,11.64
2023-05-10T01:10:49.381Z,11.66
2023-05-10T01:15:47.349Z,11.75
2023-05-10T01:20:48.484Z,11.84
2023-05-10T01:26:08.663Z,11.89
2023-05-10T01:31:09.517Z,11.81
2023-05-10T01:36:09.974Z,11.86
2023-05-10T01:41:13.134Z,11.97
2023-05-10T01:46:11.504Z,12.12
2023-05-10T01:51:10.166Z,12.28
2023-05-10T01:56:08.579Z,12.47
2023-05-10T02:01:05.671Z,12.52
2023-05-10T02:06:04.648Z,12.48
2023-05-10T02:11:03.022Z,12.60
2023-05-10T02:16:00.316Z,12.63
2023-05-10T02:20:57.451Z,12.63
2023-05-10T02:25:54.477Z,12.44
2023-05-10T02:30:52.312Z,11.99
2023-05-10T02:35:49.394Z,11.86
2023-05-10T02:40:47.320Z,11.39
2023-05-10T02:45:44.455Z,11.24
2023-05-10T02:50:44.004Z,10.71
2023-05-10T02:55:41.684Z,10.98
2023-05-10T03:00:38.215Z,10.83
2023-05-10T03:05:34.728Z,11.14
2023-05-10T03:10:35.648Z,11.07
2023-05-10T03:15:36.861Z,11.05
2023-05-10T03:20:36.427Z,10.84
2023-05-10T03:25:33.306Z,10.92
2023-05-10T03:30:32.517Z,11.16
2023-05-10T03:35:29.308Z,10.83
2023-05-10T03:40:26.784Z,10.90
2023-05-10T03:45:23.503Z,10.84
2023-05-10T03:50:21.246Z,11.02
2023-05-10T03:55:18.473Z,10.72
2023-05-10T04:00:16.482Z,10.96
2023-05-10T04:05:13.513Z,11.05
2023-05-10T04:10:11.440Z,11.33
2023-05-10T04:15:08.557Z,11.42
2023-05-10T04:20:05.754Z,11.62
2023-05-10T04:25:02.334Z,11.43
2023-05-10T04:29:59.663Z,11.43
2023-05-10T04:34:56.395Z,11.66
2023-05-10T04:39:53.164Z,11.84
2023-05-10T04:44:49.731Z,11.54
2023-05-10T04:49:47.082Z,11.73
2023-05-10T04:54:43.649Z,11.48
2023-05-10T04:59:40.218Z,11.57
2023-05-10T05:04:37.071Z,11.46
2023-05-10T05:09:34.565Z,11.50
2023-05-10T05:14:31.106Z,11.70
2023-05-10T05:19:27.752Z,11.97
2023-05-10T05:24:24.321Z,12.17
2023-05-10T05:29:21.546Z,11.97
2023-05-10T05:34:18.358Z,11.49
2023-05-10T05:39:15.294Z,11.63
2023-05-10T05:44:11.908Z,11.87
2023-05-10T05:49:09.642Z,11.96
2023-05-10T05:54:06.794Z,12.12
2023-05-10T05:59:07.036Z,12.31
2023-05-10T06:04:04.018Z,11.50
2023-05-10T06:09:01.469Z,11.55
2023-05-10T06:14:00.250Z,11.66
2023-05-10T06:19:07.735Z,11.98
2023-05-10T06:24:07.387Z,11.60
2023-05-10T06:29:05.365Z,11.34
2023-05-10T06:34:02.201Z,11.63
2023-05-10T06:38:58.781Z,12.10
2023-05-10T06:43:56.181Z,12.16
2023-05-10T06:48:53.111Z,12.21
2023-05-10T06:53:49.799Z,12.18
2023-05-10T06:58:46.782Z,12.56
2023-05-10T07:03:49.068Z,12.48
2023-05-10T07:08:45.877Z,11.92
2023-05-10T07:13:45.025Z,11.84
2023-05-10T07:18:41.776Z,12.30
2023-05-10T07:23:43.668Z,12.14
2023-05-10T07:28:41.746Z,12.45
2023-05-10T07:33:38.447Z,12.49
2023-05-10T07:38:40.240Z,12.47
2023-05-10T07:43:38.985Z,12.60
2023-05-10T07:48:36.025Z,12.55
2023-05-10T07:53:32.991Z,12.87
2023-05-10T07:58:29.695Z,13.07
2023-05-10T08:03:28.628Z,13.27
2023-05-10T08:08:25.844Z,13.86
2023-05-10T08:13:24.041Z,13.96
2023-05-10T08:18:22.261Z,13.76
2023-05-10T08:23:19.848Z,13.43
2023-05-10T08:28:16.819Z,13.57
2023-05-10T08:33:13.993Z,14.25
2023-05-10T08:38:10.833Z,14.15
2023-05-10T08:43:15.536Z,14.41
2023-05-10T08:48:12.852Z,14.95
2023-05-10T08:53:10.832Z,15.45
2023-05-10T08:58:10.069Z,15.66
2023-05-10T09:03:07.566Z,16.02
2023-05-10T09:08:04.700Z,16.17
2023-05-10T09:13:03.992Z,16.10
2023-05-10T09:18:02.981Z,16.27
2023-05-10T09:22:59.638Z,16.35
2023-05-10T09:27:56.365Z,16.78
2023-05-10T09:32:53.616Z,16.23
2023-05-10T09:37:53.373Z,16.72
2023-05-10T09:42:54.392Z,16.59
2023-05-10T09:47:51.155Z,16.76
2023-05-10T09:52:49.362Z,16.99
2023-05-10T09:57:46.678Z,16.47
2023-05-10T10:02:45.944Z,16.20
2023-05-10T10:07:42.885Z,16.61
2023-05-10T10:12:42.575Z,16.46
2023-05-10T10:17:40.751Z,16.19
2023-05-10T10:22:38.172Z,16.68
2023-05-10T10:27:40.579Z,17.00
2023-05-10T10:32:48.882Z,16.65
2023-05-10T10:37:46.689Z,16.85
2023-05-10T10:42:46.877Z,16.87
2023-05-10T10:47:44.770Z,17.18
2023-05-10T10:52:41.754Z,17.43
2023-05-10T10:57:47.814Z,17.11
2023-05-10T11:02:46.373Z,16.93
2023-05-10T11:07:52.268Z,17.00
2023-05-10T11:12:52.640Z,17.50
2023-05-10T11:17:55.604Z,17.17
2023-05-10T11:22:52.836Z,16.96
2023-05-10T11:27:49.455Z,17.11
2023-05-10T11:38:50.142Z,17.03
2023-05-10T11:43:49.858Z,17.02
2023-05-10T11:48:47.908Z,17.30
2023-05-10T11:53:44.713Z,17.56
2023-05-10T11:58:41.581Z,17.81
2023-05-10T12:03:38.830Z,17.41
2023-05-10T12:08:36.383Z,17.42
2023-05-10T12:13:33.626Z,17.47
2023-05-10T12:18:33.112Z,17.28
2023-05-10T12:23:31.569Z,17.49
2023-05-10T12:28:40.287Z,17.92
2023-05-10T12:33:40.635Z,17.95
2023-05-10T12:38:38.632Z,18.24
2023-05-10T12:43:36.731Z,18.35
2023-05-10T12:48:34.379Z,18.51
2023-05-10T12:53:31.441Z,18.72
2023-05-10T12:58:35.703Z,18.53
2023-05-10T13:03:33.649Z,18.40
2023-05-10T13:08:35.687Z,18.55
2023-05-10T13:13:32.788Z,18.44
2023-05-10T13:18:29.561Z,18.47
2023-05-10T13:23:27.388Z,18.27
2023-05-10T13:28:25.324Z,18.26
2023-05-10T13:33:22.117Z,18.15
2023-05-10T13:38:19.937Z,17.91
2023-05-10T13:43:19.153Z,18.19
2023-05-10T13:48:16.320Z,18.05
2023-05-10T13:53:13.252Z,18.07
2023-05-10T13:58:09.946Z,18.04
2023-05-10T14:03:09.434Z,17.93
2023-05-10T14:08:06.326Z,18.09
2023-05-10T14:13:03.573Z,18.00
2023-05-10T14:18:00.182Z,18.09
2023-05-10T14:22:57.730Z,17.91
2023-05-10T14:27:55.102Z,17.79
2023-05-10T14:32:54.277Z,17.73
2023-05-10T14:37:50.840Z,18.11
2023-05-10T14:42:48.099Z,18.23
2023-05-10T14:47:44.635Z,18.32
2023-05-10T14:52:41.194Z,18.66
2023-05-10T14:57:37.961Z,18.64
2023-05-10T15:02:35.223Z,18.74
2023-05-10T15:07:34.653Z,18.57
2023-05-10T15:12:31.215Z,17.84
2023-05-10T15:17:27.751Z,18.23
2023-05-10T15:22:25.207Z,18.21
2023-05-10T15:27:21.788Z,18.23
2023-05-10T15:32:18.466Z,18.25
2023-05-10T15:37:15.065Z,18.23
2023-05-10T15:42:12.546Z,18.10
2023-05-10T15:47:09.060Z,18.20
2023-05-10T15:52:05.820Z,18.22
2023-05-10T15:57:02.470Z,18.23
2023-05-10T16:01:59.971Z,18.07
2023-05-10T16:06:56.575Z,18.03
2023-05-10T16:11:53.108Z,18.02
2023-05-10T16:16:51.143Z,17.52
2023-05-10T16:21:48.528Z,17.18
2023-05-10T16:26:45.455Z,17.13
2023-05-10T16:31:44.300Z,17.34
2023-05-10T16:36:41.038Z,17.12
2023-05-10T16:41:38.386Z,17.09
2023-05-10T16:46:34.935Z,17.37
2023-05-10T16:51:31.635Z,16.96
2023-05-10T16:56:28.170Z,16.77
2023-05-10T17:01:26.961Z,16.84
2023-05-10T17:06:23.842Z,17.02
2023-05-10T17:11:21.218Z,16.89
2023-05-10T17:16:18.561Z,17.12
2023-05-10T17:21:16.046Z,16.89
2023-05-10T17:26:12.674Z,16.89
2023-05-10T17:31:09.533Z,16.83
2023-05-10T17:36:06.452Z,16.86
2023-05-10T17:41:03.656Z,16.77
2023-05-10T17:46:03.026Z,16.83
2023-05-10T17:50:59.584Z,16.55
2023-05-10T17:55:58.269Z,16.42
2023-05-10T18:00:56.923Z,16.47
2023-05-10T18:05:54.679Z,16.06
2023-05-10T18:10:51.566Z,16.07
2023-05-10T18:15:48.248Z,15.98
2023-05-10T18:20:46.358Z,15.87
2023-05-10T18:25:43.225Z,15.57
2023-05-10T18:30:40.479Z,15.73
2023-05-10T18:35:37.557Z,15.56
2023-05-10T18:40:34.956Z,15.40
2023-05-10T18:45:31.626Z,15.39
2023-05-10T18:50:28.517Z,15.11
2023-05-10T18:55:25.531Z,15.25
2023-05-10T19:00:22.897Z,15.27
2023-05-10T19:05:19.793Z,14.77
2023-05-10T19:10:18.841Z,14.73
2023-05-10T19:15:16.642Z,14.74
2023-05-10T19:20:16.331Z,14.46
2023-05-10T19:25:13.288Z,14.44
2023-05-10T19:30:10.597Z,14.30
2023-05-10T19:35:07.441Z,14.14
2023-05-10T19:40:05.394Z,14.13
2023-05-10T19:45:02.201Z,13.99
2023-05-10T19:49:59.152Z,13.83
2023-05-10T19:54:55.972Z,13.50
2023-05-10T19:59:53.387Z,13.42
2023-05-10T20:04:50.050Z,13.34
2023-05-10T20:09:46.755Z,13.44
2023-05-10T20:14:43.352Z,13.36
2023-05-10T20:19:40.709Z,13.51
2023-05-10T20:24:37.411Z,13.20
2023-05-10T20:29:34.327Z,13.01
2023-05-10T20:34:31.101Z,13.01
2023-05-10T20:39:28.481Z,12.79
2023-05-10T20:44:25.858Z,12.68
2023-05-10T20:49:22.487Z,12.91
2023-05-10T20:54:19.626Z,12.72
2023-05-10T20:59:17.782Z,12.55
2023-05-10T21:04:16.729Z,12.23
2023-05-10T21:09:13.528Z,12.14
2023-05-10T21:14:13.159Z,12.20
2023-05-10T21:19:11.330Z,11.82
2023-05-10T21:24:07.890Z,11.68
2023-05-10T21:29:04.561Z,11.62
2023-05-10T21:34:01.180Z,11.70
2023-05-10T21:38:58.351Z,11.56
2023-05-10T21:43:55.848Z,11.61
2023-05-10T21:48:52.406Z,11.73
2023-05-10T21:53:49.973Z,11.76
2023-05-10T21:58:47.223Z,11.67
2023-05-10T22:03:44.243Z,11.62
2023-05-10T22:08:40.843Z,11.44
2023-05-10T22:13:37.399Z,11.49
2023-05-10T22:18:34.798Z,11.61
2023-05-10T22:23:31.486Z,11.72
2023-05-10T22:28:28.134Z,11.94
2023-05-10T22:33:24.673Z,12.10
2023-05-10T22:38:22.002Z,11.98
2023-05-10T22:43:19.886Z,12.42
2023-05-10T22:48:16.436Z,12.56
2023-05-10T22:53:12.925Z,12.61
2023-05-10T22:58:10.318Z,12.63
2023-05-10T23:03:06.984Z,12.73
2023-05-10T23:08:03.556Z,12.80
2023-05-10T23:13:00.132Z,12.93
2023-05-10T23:18:00.317Z,12.78
2023-05-10T23:22:56.863Z,13.01
2023-05-10T23:27:53.405Z,13.31
2023-05-10T23:32:50.142Z,13.32
2023-05-10T23:37:47.357Z,13.02
2023-05-10T23:42:43.932Z,13.03
2023-05-10T23:47:40.837Z,13.09
2023-05-10T23:52:37.523Z,13.34
2023-05-10T23:57:37.654Z,13.49
